sensor_id;sensor_type;location;lat;lon;timestamp;pressure;altitude;pressure_sealevel;temperature;humidity
40872;BME280;26591;43.264;26.940;2023-02-13T00:02:03;100951.06;;;1.43;61.80
40872;BME280;26591;43.264;26.940;2023-02-13T00:04:29;100952.16;;;1.37;62.20
40872;BME280;26591;43.264;26.940;2023-02-13T00:06:54;100950.41;;;1.37;61.80
40872;BME280;26591;43.264;26.940;2023-02-13T00:09:20;100958.28;;;1.36;62.12
40872;BME280;26591;43.264;26.940;2023-02-13T00:11:45;100959.81;;;1.18;61.98
40872;BME280;26591;43.264;26.940;2023-02-13T00:14:11;100962.53;;;0.93;62.63
40872;BME280;26591;43.264;26.940;2023-02-13T00:16:36;100955.16;;;0.80;63.08
40872;BME280;26591;43.264;26.940;2023-02-13T00:19:02;100955.03;;;0.83;63.04
40872;BME280;26591;43.264;26.940;2023-02-13T00:21:30;100958.25;;;0.90;62.54
40872;BME280;26591;43.264;26.940;2023-02-13T00:24:01;100964.38;;;1.13;62.09
40872;BME280;26591;43.264;26.940;2023-02-13T00:26:27;100956.03;;;1.27;62.30
40872;BME280;26591;43.264;26.940;2023-02-13T00:28:52;100955.66;;;1.14;61.62
40872;BME280;26591;43.264;26.940;2023-02-13T00:31:20;100947.72;;;0.93;62.25
40872;BME280;26591;43.264;26.940;2023-02-13T00:33:45;100955.72;;;0.88;62.27
40872;BME280;26591;43.264;26.940;2023-02-13T00:36:13;100950.91;;;0.78;62.33
40872;BME280;26591;43.264;26.940;2023-02-13T00:38:40;100952.31;;;0.86;62.45
40872;BME280;26591;43.264;26.940;2023-02-13T00:41:06;100949.66;;;0.88;61.72
40872;BME280;26591;43.264;26.940;2023-02-13T00:43:32;100955.22;;;1.02;62.01
40872;BME280;26591;43.264;26.940;2023-02-13T00:45:58;100954.47;;;0.99;61.94
40872;BME280;26591;43.264;26.940;2023-02-13T00:48:24;100956.63;;;0.87;61.87
40872;BME280;26591;43.264;26.940;2023-02-13T00:50:50;100947.28;;;0.82;61.69
40872;BME280;26591;43.264;26.940;2023-02-13T00:53:17;100956.84;;;0.81;61.60
40872;BME280;26591;43.264;26.940;2023-02-13T00:55:43;100960.59;;;0.74;62.17
40872;BME280;26591;43.264;26.940;2023-02-13T00:58:11;100957.78;;;0.80;62.26
40872;BME280;26591;43.264;26.940;2023-02-13T01:00:37;100958.25;;;0.90;61.36
40872;BME280;26591;43.264;26.940;2023-02-13T01:03:03;100949.47;;;0.69;62.11
40872;BME280;26591;43.264;26.940;2023-02-13T01:05:28;100945.59;;;0.55;62.92
40872;BME280;26591;43.264;26.940;2023-02-13T01:07:55;100948.75;;;0.65;62.62
40872;BME280;26591;43.264;26.940;2023-02-13T01:10:20;100948.31;;;0.52;62.68
40872;BME280;26591;43.264;26.940;2023-02-13T01:12:46;100955.53;;;0.69;61.61
40872;BME280;26591;43.264;26.940;2023-02-13T01:15:11;100955.94;;;0.58;61.99
40872;BME280;26591;43.264;26.940;2023-02-13T01:17:36;100953.94;;;0.65;62.77
40872;BME280;26591;43.264;26.940;2023-02-13T01:20:09;100956.06;;;0.79;62.31
40872;BME280;26591;43.264;26.940;2023-02-13T01:22:35;100952.13;;;0.67;62.31
40872;BME280;26591;43.264;26.940;2023-02-13T01:25:01;100954.66;;;0.70;62.51
40872;BME280;26591;43.264;26.940;2023-02-13T01:27:27;100960.22;;;0.59;61.89
40872;BME280;26591;43.264;26.940;2023-02-13T01:29:53;100960.97;;;0.63;62.01
40872;BME280;26591;43.264;26.940;2023-02-13T01:32:19;100965.47;;;0.83;61.13
40872;BME280;26591;43.264;26.940;2023-02-13T01:35:03;100959.34;;;0.84;61.46
40872;BME280;26591;43.264;26.940;2023-02-13T01:37:29;100959.13;;;0.90;61.69
40872;BME280;26591;43.264;26.940;2023-02-13T01:39:54;100964.72;;;0.80;61.48
40872;BME280;26591;43.264;26.940;2023-02-13T01:42:30;100974.59;;;0.95;61.16
40872;BME280;26591;43.264;26.940;2023-02-13T01:45:04;100980.50;;;1.00;61.04
40872;BME280;26591;43.264;26.940;2023-02-13T01:47:49;100985.06;;;1.17;60.34
40872;BME280;26591;43.264;26.940;2023-02-13T01:50:40;100964.44;;;0.87;60.29
40872;BME280;26591;43.264;26.940;2023-02-13T01:53:11;100966.66;;;0.98;60.63
40872;BME280;26591;43.264;26.940;2023-02-13T01:55:43;100967.00;;;1.13;60.43
40872;BME280;26591;43.264;26.940;2023-02-13T01:58:15;100977.34;;;1.14;60.25
40872;BME280;26591;43.264;26.940;2023-02-13T02:00:44;100970.44;;;1.13;59.65
40872;BME280;26591;43.264;26.940;2023-02-13T02:03:40;100965.19;;;1.15;60.34
40872;BME280;26591;43.264;26.940;2023-02-13T02:06:13;100957.22;;;1.18;60.11
40872;BME280;26591;43.264;26.940;2023-02-13T02:08:41;100964.63;;;1.29;59.31
40872;BME280;26591;43.264;26.940;2023-02-13T02:11:16;100967.53;;;1.21;58.84
40872;BME280;26591;43.264;26.940;2023-02-13T02:13:47;100964.22;;;1.40;58.72
40872;BME280;26591;43.264;26.940;2023-02-13T02:16:12;100964.31;;;1.60;58.42
40872;BME280;26591;43.264;26.940;2023-02-13T02:18:38;100958.47;;;1.31;58.43
40872;BME280;26591;43.264;26.940;2023-02-13T02:26:27;100958.28;;;1.14;58.21
40872;BME280;26591;43.264;26.940;2023-02-13T02:31:51;100965.66;;;1.02;58.73
40872;BME280;26591;43.264;26.940;2023-02-13T02:58:42;100973.72;;;0.71;60.01
40872;BME280;26591;43.264;26.940;2023-02-13T03:01:31;100966.06;;;0.66;59.37
40872;BME280;26591;43.264;26.940;2023-02-13T03:07:08;100966.44;;;0.81;59.60
40872;BME280;26591;43.264;26.940;2023-02-13T03:09:42;100970.94;;;0.75;59.27
40872;BME280;26591;43.264;26.940;2023-02-13T03:12:35;100970.28;;;0.70;59.50
40872;BME280;26591;43.264;26.940;2023-02-13T03:15:19;100971.22;;;0.68;59.22
40872;BME280;26591;43.264;26.940;2023-02-13T03:17:45;100964.63;;;0.83;59.18
40872;BME280;26591;43.264;26.940;2023-02-13T03:20:59;100966.97;;;0.89;58.61
40872;BME280;26591;43.264;26.940;2023-02-13T03:24:24;100968.00;;;1.09;61.05
40872;BME280;26591;43.264;26.940;2023-02-13T03:27:14;100979.47;;;1.28;59.66
40872;BME280;26591;43.264;26.940;2023-02-13T03:30:07;100971.44;;;1.33;59.19
40872;BME280;26591;43.264;26.940;2023-02-13T03:38:27;100969.31;;;1.20;57.80
40872;BME280;26591;43.264;26.940;2023-02-13T03:41:02;100966.03;;;1.15;58.12
40872;BME280;26591;43.264;26.940;2023-02-13T03:46:38;100966.53;;;1.25;58.44
40872;BME280;26591;43.264;26.940;2023-02-13T03:49:10;100959.19;;;1.35;57.71
40872;BME280;26591;43.264;26.940;2023-02-13T03:52:04;100966.78;;;1.41;57.27
40872;BME280;26591;43.264;26.940;2023-02-13T03:57:20;100965.25;;;1.35;57.35
40872;BME280;26591;43.264;26.940;2023-02-13T04:00:11;100958.19;;;1.39;56.99
40872;BME280;26591;43.264;26.940;2023-02-13T04:02:50;100956.28;;;1.43;59.63
40872;BME280;26591;43.264;26.940;2023-02-13T04:05:24;100956.59;;;1.57;59.23
40872;BME280;26591;43.264;26.940;2023-02-13T04:07:50;100953.69;;;1.43;57.25
40872;BME280;26591;43.264;26.940;2023-02-13T04:10:19;100951.19;;;1.40;57.46
40872;BME280;26591;43.264;26.940;2023-02-13T04:15:27;100957.81;;;1.48;57.14
40872;BME280;26591;43.264;26.940;2023-02-13T04:18:02;100953.69;;;1.19;58.07
40872;BME280;26591;43.264;26.940;2023-02-13T04:20:31;100954.69;;;1.16;58.47
40872;BME280;26591;43.264;26.940;2023-02-13T04:23:03;100956.69;;;1.32;59.37
40872;BME280;26591;43.264;26.940;2023-02-13T04:25:30;100957.47;;;1.12;58.75
40872;BME280;26591;43.264;26.940;2023-02-13T04:27:57;100944.88;;;1.23;57.90
40872;BME280;26591;43.264;26.940;2023-02-13T04:30:23;100952.47;;;1.29;58.23
40872;BME280;26591;43.264;26.940;2023-02-13T04:32:48;100947.34;;;1.26;57.92
40872;BME280;26591;43.264;26.940;2023-02-13T04:35:14;100949.97;;;1.26;58.08
40872;BME280;26591;43.264;26.940;2023-02-13T04:37:39;100951.41;;;1.33;57.72
40872;BME280;26591;43.264;26.940;2023-02-13T04:40:05;100961.72;;;1.14;58.49
40872;BME280;26591;43.264;26.940;2023-02-13T04:42:31;100955.06;;;1.05;58.54
40872;BME280;26591;43.264;26.940;2023-02-13T04:44:56;100958.59;;;1.04;58.22
40872;BME280;26591;43.264;26.940;2023-02-13T04:47:23;100952.94;;;0.93;58.72
40872;BME280;26591;43.264;26.940;2023-02-13T04:49:49;100958.59;;;1.04;59.00
40872;BME280;26591;43.264;26.940;2023-02-13T04:52:14;100960.25;;;1.07;58.53
40872;BME280;26591;43.264;26.940;2023-02-13T04:54:40;100955.25;;;1.01;59.21
40872;BME280;26591;43.264;26.940;2023-02-13T04:57:05;100952.44;;;1.07;58.80
40872;BME280;26591;43.264;26.940;2023-02-13T04:59:31;100953.22;;;1.09;58.67
40872;BME280;26591;43.264;26.940;2023-02-13T05:01:56;100949.66;;;1.12;58.76
40872;BME280;26591;43.264;26.940;2023-02-13T05:04:24;100956.97;;;1.02;58.36
40872;BME280;26591;43.264;26.940;2023-02-13T05:06:50;100960.88;;;-0.11;60.12
40872;BME280;26591;43.264;26.940;2023-02-13T05:09:15;100961.91;;;-0.44;61.75
40872;BME280;26591;43.264;26.940;2023-02-13T05:11:41;100961.94;;;-0.17;62.31
40872;BME280;26591;43.264;26.940;2023-02-13T05:14:06;100972.66;;;0.01;61.39
40872;BME280;26591;43.264;26.940;2023-02-13T05:16:32;100977.56;;;0.35;61.28
40872;BME280;26591;43.264;26.940;2023-02-13T05:18:58;100981.19;;;0.56;60.35
40872;BME280;26591;43.264;26.940;2023-02-13T05:21:23;100981.84;;;1.11;60.47
40872;BME280;26591;43.264;26.940;2023-02-13T05:24:07;100987.97;;;1.78;60.02
40872;BME280;26591;43.264;26.940;2023-02-13T05:26:33;100990.34;;;2.27;59.35
40872;BME280;26591;43.264;26.940;2023-02-13T05:28:58;100989.47;;;2.68;58.20
40872;BME280;26591;43.264;26.940;2023-02-13T05:31:42;100987.81;;;2.86;58.13
40872;BME280;26591;43.264;26.940;2023-02-13T05:34:08;100996.31;;;3.10;56.97
40872;BME280;26591;43.264;26.940;2023-02-13T05:36:33;101005.00;;;3.11;56.32
40872;BME280;26591;43.264;26.940;2023-02-13T05:38:59;101000.56;;;3.13;56.76
40872;BME280;26591;43.264;26.940;2023-02-13T05:41:24;101014.66;;;3.29;56.33
40872;BME280;26591;43.264;26.940;2023-02-13T05:43:50;101012.03;;;3.48;56.07
40872;BME280;26591;43.264;26.940;2023-02-13T05:46:15;101009.94;;;3.74;54.46
40872;BME280;26591;43.264;26.940;2023-02-13T05:48:41;101025.59;;;3.93;53.21
40872;BME280;26591;43.264;26.940;2023-02-13T05:51:06;101015.91;;;3.95;53.63
40872;BME280;26591;43.264;26.940;2023-02-13T05:53:32;101026.97;;;4.20;53.42
40872;BME280;26591;43.264;26.940;2023-02-13T05:56:02;101027.91;;;4.54;51.92
40872;BME280;26591;43.264;26.940;2023-02-13T05:58:28;101023.31;;;4.75;51.69
40872;BME280;26591;43.264;26.940;2023-02-13T06:00:58;101011.16;;;4.90;52.04
40872;BME280;26591;43.264;26.940;2023-02-13T06:03:25;101007.34;;;5.29;51.68
40872;BME280;26591;43.264;26.940;2023-02-13T06:05:52;101006.91;;;5.69;50.32
40872;BME280;26591;43.264;26.940;2023-02-13T06:08:18;101001.28;;;6.07;49.50
40872;BME280;26591;43.264;26.940;2023-02-13T06:10:45;101012.88;;;6.50;48.31
40872;BME280;26591;43.264;26.940;2023-02-13T06:13:11;101012.25;;;6.90;48.41
40872;BME280;26591;43.264;26.940;2023-02-13T06:15:38;101013.66;;;7.24;47.33
40872;BME280;26591;43.264;26.940;2023-02-13T06:18:04;101009.78;;;7.57;46.38
40872;BME280;26591;43.264;26.940;2023-02-13T06:20:30;101004.03;;;7.65;45.55
40872;BME280;26591;43.264;26.940;2023-02-13T06:22:55;101009.69;;;8.14;44.96
40872;BME280;26591;43.264;26.940;2023-02-13T06:25:21;101014.44;;;8.49;44.54
40872;BME280;26591;43.264;26.940;2023-02-13T06:27:46;101002.28;;;8.98;43.23
40872;BME280;26591;43.264;26.940;2023-02-13T06:30:13;100998.91;;;9.09;42.99
40872;BME280;26591;43.264;26.940;2023-02-13T06:32:39;101007.78;;;9.08;43.27
40872;BME280;26591;43.264;26.940;2023-02-13T06:35:05;100998.50;;;8.63;44.22
40872;BME280;26591;43.264;26.940;2023-02-13T06:37:30;101004.09;;;8.84;44.15
40872;BME280;26591;43.264;26.940;2023-02-13T06:39:56;101003.56;;;8.92;43.74
40872;BME280;26591;43.264;26.940;2023-02-13T06:42:21;101004.50;;;9.04;43.60
40872;BME280;26591;43.264;26.940;2023-02-13T06:44:47;101002.16;;;8.99;43.33
40872;BME280;26591;43.264;26.940;2023-02-13T06:49:47;100989.97;;;9.36;43.31
40872;BME280;26591;43.264;26.940;2023-02-13T06:52:13;100993.38;;;9.62;42.73
40872;BME280;26591;43.264;26.940;2023-02-13T06:54:38;100990.81;;;10.09;42.01
40872;BME280;26591;43.264;26.940;2023-02-13T06:57:04;100990.84;;;10.20;41.30
40872;BME280;26591;43.264;26.940;2023-02-13T06:59:29;100986.63;;;10.18;40.44
40872;BME280;26591;43.264;26.940;2023-02-13T07:01:55;100998.22;;;10.04;41.09
40872;BME280;26591;43.264;26.940;2023-02-13T07:04:20;100993.50;;;9.96;41.29
40872;BME280;26591;43.264;26.940;2023-02-13T07:06:45;100995.84;;;9.76;41.69
40872;BME280;26591;43.264;26.940;2023-02-13T07:09:11;101004.91;;;9.61;41.78
40872;BME280;26591;43.264;26.940;2023-02-13T07:11:38;101002.09;;;9.75;41.40
40872;BME280;26591;43.264;26.940;2023-02-13T07:14:06;101001.63;;;9.20;41.37
40872;BME280;26591;43.264;26.940;2023-02-13T07:16:32;101007.16;;;8.91;41.83
40872;BME280;26591;43.264;26.940;2023-02-13T07:18:57;101007.56;;;8.85;42.25
40872;BME280;26591;43.264;26.940;2023-02-13T07:21:22;101006.72;;;8.97;42.37
40872;BME280;26591;43.264;26.940;2023-02-13T07:23:48;101011.59;;;10.02;43.75
40872;BME280;26591;43.264;26.940;2023-02-13T07:26:13;101011.72;;;10.36;40.53
40872;BME280;26591;43.264;26.940;2023-02-13T07:28:40;101015.31;;;10.35;40.07
40872;BME280;26591;43.264;26.940;2023-02-13T07:31:06;101000.88;;;10.04;40.03
40872;BME280;26591;43.264;26.940;2023-02-13T07:33:32;100999.66;;;9.97;39.91
40872;BME280;26591;43.264;26.940;2023-02-13T07:35:58;100997.00;;;9.97;40.32
40872;BME280;26591;43.264;26.940;2023-02-13T07:38:23;100996.72;;;9.88;40.51
40872;BME280;26591;43.264;26.940;2023-02-13T07:40:49;100990.00;;;9.84;40.54
40872;BME280;26591;43.264;26.940;2023-02-13T07:43:15;100995.81;;;10.01;39.71
40872;BME280;26591;43.264;26.940;2023-02-13T07:45:40;100993.50;;;9.72;39.70
40872;BME280;26591;43.264;26.940;2023-02-13T07:48:06;100987.16;;;9.50;39.88
40872;BME280;26591;43.264;26.940;2023-02-13T07:50:31;100990.66;;;9.13;39.90
40872;BME280;26591;43.264;26.940;2023-02-13T07:53:01;100986.31;;;9.25;40.00
40872;BME280;26591;43.264;26.940;2023-02-13T07:55:28;100990.03;;;8.97;41.33
40872;BME280;26591;43.264;26.940;2023-02-13T07:57:54;100984.16;;;8.54;42.63
40872;BME280;26591;43.264;26.940;2023-02-13T08:00:20;100984.09;;;8.29;42.84
40872;BME280;26591;43.264;26.940;2023-02-13T08:02:46;100979.91;;;7.99;42.93
40872;BME280;26591;43.264;26.940;2023-02-13T08:05:12;100974.13;;;8.06;44.21
40872;BME280;26591;43.264;26.940;2023-02-13T08:07:38;100978.75;;;8.03;44.02
40872;BME280;26591;43.264;26.940;2023-02-13T08:10:07;100973.94;;;8.22;44.31
40872;BME280;26591;43.264;26.940;2023-02-13T08:12:52;100967.00;;;7.81;43.93
40872;BME280;26591;43.264;26.940;2023-02-13T08:15:19;100971.56;;;7.37;45.02
40872;BME280;26591;43.264;26.940;2023-02-13T08:17:44;100964.84;;;7.18;44.86
40872;BME280;26591;43.264;26.940;2023-02-13T08:20:10;100960.97;;;7.52;45.12
40872;BME280;26591;43.264;26.940;2023-02-13T08:22:37;100956.38;;;6.26;46.67
40872;BME280;26591;43.264;26.940;2023-02-13T08:25:05;100962.13;;;6.91;46.25
40872;BME280;26591;43.264;26.940;2023-02-13T08:27:31;100960.44;;;6.90;46.43
40872;BME280;26591;43.264;26.940;2023-02-13T08:30:28;100948.31;;;6.30;47.31
40872;BME280;26591;43.264;26.940;2023-02-13T08:32:53;100959.56;;;6.32;46.34
40872;BME280;26591;43.264;26.940;2023-02-13T08:35:19;100956.22;;;6.59;45.87
40872;BME280;26591;43.264;26.940;2023-02-13T08:37:45;100942.69;;;5.89;47.44
40872;BME280;26591;43.264;26.940;2023-02-13T08:40:11;100943.53;;;6.65;45.93
40872;BME280;26591;43.264;26.940;2023-02-13T08:42:37;100941.34;;;7.01;43.69
40872;BME280;26591;43.264;26.940;2023-02-13T08:45:03;100939.13;;;7.37;40.91
40872;BME280;26591;43.264;26.940;2023-02-13T08:47:30;100942.28;;;7.14;41.05
40872;BME280;26591;43.264;26.940;2023-02-13T08:49:55;100940.16;;;6.78;40.23
40872;BME280;26591;43.264;26.940;2023-02-13T08:52:21;100936.28;;;6.98;39.09
40872;BME280;26591;43.264;26.940;2023-02-13T08:54:46;100936.47;;;6.66;39.23
40872;BME280;26591;43.264;26.940;2023-02-13T08:57:12;100932.25;;;6.63;38.78
40872;BME280;26591;43.264;26.940;2023-02-13T08:59:37;100934.94;;;7.47;38.12
40872;BME280;26591;43.264;26.940;2023-02-13T09:02:03;100929.41;;;8.05;36.49
40872;BME280;26591;43.264;26.940;2023-02-13T09:04:28;100928.06;;;8.64;36.06
40872;BME280;26591;43.264;26.940;2023-02-13T09:06:54;100928.03;;;8.90;35.44
40872;BME280;26591;43.264;26.940;2023-02-13T09:09:23;100927.19;;;8.12;36.40
40872;BME280;26591;43.264;26.940;2023-02-13T09:11:49;100925.41;;;8.12;36.74
40872;BME280;26591;43.264;26.940;2023-02-13T09:14:15;100922.78;;;8.12;38.12
40872;BME280;26591;43.264;26.940;2023-02-13T09:16:41;100922.78;;;8.38;37.46
40872;BME280;26591;43.264;26.940;2023-02-13T09:19:06;100923.53;;;8.79;36.88
40872;BME280;26591;43.264;26.940;2023-02-13T09:21:32;100912.00;;;9.17;36.07
40872;BME280;26591;43.264;26.940;2023-02-13T09:23:57;100919.69;;;8.96;36.43
40872;BME280;26591;43.264;26.940;2023-02-13T09:26:23;100921.91;;;8.89;36.62
40872;BME280;26591;43.264;26.940;2023-02-13T09:28:48;100915.28;;;8.70;36.73
40872;BME280;26591;43.264;26.940;2023-02-13T09:31:17;100909.38;;;8.54;37.12
40872;BME280;26591;43.264;26.940;2023-02-13T09:33:44;100910.66;;;8.74;36.84
40872;BME280;26591;43.264;26.940;2023-02-13T09:36:13;100893.97;;;8.35;37.53
40872;BME280;26591;43.264;26.940;2023-02-13T09:38:39;100898.34;;;7.83;39.04
40872;BME280;26591;43.264;26.940;2023-02-13T09:41:14;100887.81;;;7.42;39.09
40872;BME280;26591;43.264;26.940;2023-02-13T09:46:22;100879.16;;;7.81;38.52
40872;BME280;26591;43.264;26.940;2023-02-13T09:48:53;100880.31;;;7.76;39.00
40872;BME280;26591;43.264;26.940;2023-02-13T09:51:21;100876.44;;;7.95;38.88
40872;BME280;26591;43.264;26.940;2023-02-13T09:54:00;100865.47;;;7.75;39.00
40872;BME280;26591;43.264;26.940;2023-02-13T09:56:31;100867.28;;;8.14;38.67
40872;BME280;26591;43.264;26.940;2023-02-13T09:59:15;100863.94;;;8.88;37.98
40872;BME280;26591;43.264;26.940;2023-02-13T10:01:47;100855.16;;;8.50;38.60
40872;BME280;26591;43.264;26.940;2023-02-13T10:04:24;100851.88;;;8.96;37.25
40872;BME280;26591;43.264;26.940;2023-02-13T10:17:53;100826.41;;;10.25;38.67
40872;BME280;26591;43.264;26.940;2023-02-13T10:20:36;100838.38;;;10.53;38.38
40872;BME280;26591;43.264;26.940;2023-02-13T10:23:29;100829.41;;;10.77;38.28
40872;BME280;26591;43.264;26.940;2023-02-13T10:26:11;100827.38;;;10.69;37.91
40872;BME280;26591;43.264;26.940;2023-02-13T10:28:43;100828.84;;;11.06;37.74
40872;BME280;26591;43.264;26.940;2023-02-13T10:31:16;100820.94;;;11.39;37.39
40872;BME280;26591;43.264;26.940;2023-02-13T10:33:51;100811.22;;;11.28;37.00
40872;BME280;26591;43.264;26.940;2023-02-13T10:36:21;100805.97;;;11.05;37.67
40872;BME280;26591;43.264;26.940;2023-02-13T10:41:24;100801.00;;;11.44;37.00
40872;BME280;26591;43.264;26.940;2023-02-13T10:44:01;100791.47;;;11.42;36.76
40872;BME280;26591;43.264;26.940;2023-02-13T10:47:17;100789.53;;;11.86;36.30
40872;BME280;26591;43.264;26.940;2023-02-13T10:50:05;100786.84;;;11.55;36.33
40872;BME280;26591;43.264;26.940;2023-02-13T11:00:55;100770.28;;;11.63;36.37
40872;BME280;26591;43.264;26.940;2023-02-13T11:03:27;100779.84;;;11.54;36.34
40872;BME280;26591;43.264;26.940;2023-02-13T11:05:55;100772.00;;;11.74;36.24
40872;BME280;26591;43.264;26.940;2023-02-13T11:08:32;100765.53;;;11.88;36.38
40872;BME280;26591;43.264;26.940;2023-02-13T11:10:59;100757.69;;;12.08;35.99
40872;BME280;26591;43.264;26.940;2023-02-13T11:13:27;100758.66;;;12.47;35.13
40872;BME280;26591;43.264;26.940;2023-02-13T11:18:22;100757.59;;;12.19;36.00
40872;BME280;26591;43.264;26.940;2023-02-13T11:21:02;100749.25;;;12.43;35.11
40872;BME280;26591;43.264;26.940;2023-02-13T11:23:34;100746.75;;;12.42;35.98
40872;BME280;26591;43.264;26.940;2023-02-13T11:26:08;100744.13;;;12.51;35.22
40872;BME280;26591;43.264;26.940;2023-02-13T11:28:58;100734.22;;;12.63;35.43
40872;BME280;26591;43.264;26.940;2023-02-13T11:36:54;100728.63;;;12.47;36.08
40872;BME280;26591;43.264;26.940;2023-02-13T11:39:31;100717.31;;;12.55;35.64
40872;BME280;26591;43.264;26.940;2023-02-13T11:41:58;100719.09;;;12.34;36.53
40872;BME280;26591;43.264;26.940;2023-02-13T11:44:31;100722.84;;;12.32;36.40
40872;BME280;26591;43.264;26.940;2023-02-13T11:46:59;100709.78;;;12.09;36.60
40872;BME280;26591;43.264;26.940;2023-02-13T11:49:33;100713.59;;;12.26;36.75
40872;BME280;26591;43.264;26.940;2023-02-13T11:52:01;100706.88;;;12.22;36.71
40872;BME280;26591;43.264;26.940;2023-02-13T11:54:34;100704.84;;;12.55;36.43
40872;BME280;26591;43.264;26.940;2023-02-13T11:57:20;100689.75;;;12.46;36.66
40872;BME280;26591;43.264;26.940;2023-02-13T11:59:48;100687.31;;;12.23;37.10
40872;BME280;26591;43.264;26.940;2023-02-13T12:04:46;100680.63;;;12.19;37.47
40872;BME280;26591;43.264;26.940;2023-02-13T12:07:16;100671.66;;;12.10;37.54
40872;BME280;26591;43.264;26.940;2023-02-13T12:09:45;100675.75;;;11.93;37.98
40872;BME280;26591;43.264;26.940;2023-02-13T12:12:41;100670.25;;;12.06;37.82
40872;BME280;26591;43.264;26.940;2023-02-13T12:15:23;100673.06;;;12.24;37.88
40872;BME280;26591;43.264;26.940;2023-02-13T12:17:58;100667.44;;;12.08;37.74
40872;BME280;26591;43.264;26.940;2023-02-13T12:20:30;100663.97;;;12.07;38.24
40872;BME280;26591;43.264;26.940;2023-02-13T12:23:45;100658.53;;;11.78;38.38
40872;BME280;26591;43.264;26.940;2023-02-13T12:26:04;100664.31;;;11.93;38.94
40872;BME280;26591;43.264;26.940;2023-02-13T12:32:06;100662.34;;;11.54;39.22
40872;BME280;26591;43.264;26.940;2023-02-13T12:37:31;100657.97;;;11.74;39.04
40872;BME280;26591;43.264;26.940;2023-02-13T12:40:29;100650.13;;;11.10;40.16
40872;BME280;26591;43.264;26.940;2023-02-13T12:46:49;100663.69;;;10.96;40.62
40872;BME280;26591;43.264;26.940;2023-02-13T12:57:39;100653.59;;;11.32;40.57
40872;BME280;26591;43.264;26.940;2023-02-13T13:08:43;100648.31;;;11.32;40.81
40872;BME280;26591;43.264;26.940;2023-02-13T13:24:45;100647.88;;;11.58;40.33
40872;BME280;26591;43.264;26.940;2023-02-13T13:27:22;100651.69;;;11.44;40.41
40872;BME280;26591;43.264;26.940;2023-02-13T13:29:58;100646.25;;;11.14;40.96
40872;BME280;26591;43.264;26.940;2023-02-13T13:32:26;100641.00;;;11.24;40.73
40872;BME280;26591;43.264;26.940;2023-02-13T13:34:53;100639.69;;;11.19;40.82
40872;BME280;26591;43.264;26.940;2023-02-13T13:45:29;100617.75;;;10.64;41.77
40872;BME280;26591;43.264;26.940;2023-02-13T13:48:28;100624.47;;;10.90;41.33
40872;BME280;26591;43.264;26.940;2023-02-13T13:50:58;100619.13;;;10.47;42.18
40872;BME280;26591;43.264;26.940;2023-02-13T13:53:24;100622.88;;;9.89;43.09
40872;BME280;26591;43.264;26.940;2023-02-13T14:03:40;100599.56;;;9.72;43.67
40872;BME280;26591;43.264;26.940;2023-02-13T14:06:15;100596.00;;;9.61;44.27
40872;BME280;26591;43.264;26.940;2023-02-13T14:11:35;100588.78;;;9.64;44.16
40872;BME280;26591;43.264;26.940;2023-02-13T14:16:53;100596.91;;;9.95;43.66
40872;BME280;26591;43.264;26.940;2023-02-13T14:27:36;100587.59;;;9.45;45.10
40872;BME280;26591;43.264;26.940;2023-02-13T14:30:04;100580.25;;;9.37;45.23
40872;BME280;26591;43.264;26.940;2023-02-13T14:32:32;100585.41;;;9.16;46.04
40872;BME280;26591;43.264;26.940;2023-02-13T14:35:05;100592.75;;;9.24;45.36
40872;BME280;26591;43.264;26.940;2023-02-13T14:37:49;100578.56;;;9.36;45.54
40872;BME280;26591;43.264;26.940;2023-02-13T14:42:50;100589.03;;;9.26;45.78
40872;BME280;26591;43.264;26.940;2023-02-13T14:45:21;100573.81;;;8.72;47.81
40872;BME280;26591;43.264;26.940;2023-02-13T14:47:53;100575.19;;;8.89;47.27
40872;BME280;26591;43.264;26.940;2023-02-13T14:53:04;100572.19;;;8.82;47.17
40872;BME280;26591;43.264;26.940;2023-02-13T14:55:40;100569.44;;;8.95;47.96
40872;BME280;26591;43.264;26.940;2023-02-13T14:58:25;100565.91;;;8.83;47.75
40872;BME280;26591;43.264;26.940;2023-02-13T15:00:56;100572.94;;;8.95;47.85
40872;BME280;26591;43.264;26.940;2023-02-13T15:03:27;100575.06;;;9.01;47.93
40872;BME280;26591;43.264;26.940;2023-02-13T15:05:58;100571.25;;;8.94;49.30
40872;BME280;26591;43.264;26.940;2023-02-13T15:08:28;100575.81;;;9.04;48.94
40872;BME280;26591;43.264;26.940;2023-02-13T15:10:56;100576.75;;;9.14;48.83
40872;BME280;26591;43.264;26.940;2023-02-13T15:13:35;100572.69;;;9.10;48.14
40872;BME280;26591;43.264;26.940;2023-02-13T15:16:05;100575.91;;;8.91;48.80
40872;BME280;26591;43.264;26.940;2023-02-13T15:18:43;100574.91;;;8.69;48.74
40872;BME280;26591;43.264;26.940;2023-02-13T15:21:16;100570.03;;;8.27;49.84
40872;BME280;26591;43.264;26.940;2023-02-13T15:23:43;100561.13;;;7.92;50.97
40872;BME280;26591;43.264;26.940;2023-02-13T15:26:22;100564.25;;;7.73;51.13
40872;BME280;26591;43.264;26.940;2023-02-13T15:29:00;100565.72;;;7.77;51.46
40872;BME280;26591;43.264;26.940;2023-02-13T15:31:32;100568.00;;;7.58;51.70
40872;BME280;26591;43.264;26.940;2023-02-13T15:33:58;100576.56;;;7.86;52.32
40872;BME280;26591;43.264;26.940;2023-02-13T15:36:31;100581.22;;;7.69;52.53
40872;BME280;26591;43.264;26.940;2023-02-13T15:39:03;100576.69;;;7.71;51.90
40872;BME280;26591;43.264;26.940;2023-02-13T15:41:41;100579.31;;;7.84;52.26
40872;BME280;26591;43.264;26.940;2023-02-13T15:44:16;100595.22;;;8.91;61.00
40872;BME280;26591;43.264;26.940;2023-02-13T15:46:46;100593.94;;;9.20;51.47
40872;BME280;26591;43.264;26.940;2023-02-13T15:49:20;100592.25;;;8.96;49.69